sensor_id;sensor_type;location;lat;lon;timestamp;temperature;humidity
22491;DHT22;11412;50.802;4.350;2023-10-08T00:01:36;16.70;99.90
22491;DHT22;11412;50.802;4.350;2023-10-08T00:04:08;16.60;99.90
22491;DHT22;11412;50.802;4.350;2023-10-08T00:06:34;16.60;99.90
22491;DHT22;11412;50.802;4.350;2023-10-08T00:09:00;16.70;99.90
22491;DHT22;11412;50.802;4.350;2023-10-08T00:11:29;16.70;99.90
22491;DHT22;11412;50.802;4.350;2023-10-08T00:13:55;16.80;99.90
22491;DHT22;11412;50.802;4.350;2023-10-08T00:16:22;16.70;99.90
22491;DHT22;11412;50.802;4.350;2023-10-08T00:18:48;16.70;99.90
22491;DHT22;11412;50.802;4.350;2023-10-08T00:21:21;16.70;99.90
22491;DHT22;11412;50.802;4.350;2023-10-08T00:23:53;16.60;99.90
22491;DHT22;11412;50.802;4.350;2023-10-08T00:26:26;16.50;99.90
22491;DHT22;11412;50.802;4.350;2023-10-08T00:31:27;16.60;99.90
22491;DHT22;11412;50.802;4.350;2023-10-08T00:34:04;16.50;99.90
22491;DHT22;11412;50.802;4.350;2023-10-08T00:36:43;16.80;99.90
22491;DHT22;11412;50.802;4.350;2023-10-08T00:39:10;16.80;99.90
22491;DHT22;11412;50.802;4.350;2023-10-08T00:41:43;16.70;99.90
22491;DHT22;11412;50.802;4.350;2023-10-08T00:44:10;16.50;99.90
22491;DHT22;11412;50.802;4.350;2023-10-08T00:46:59;16.30;99.90
22491;DHT22;11412;50.802;4.350;2023-10-08T00:49:27;16.30;99.90
22491;DHT22;11412;50.802;4.350;2023-10-08T00:52:10;16.20;99.90
22491;DHT22;11412;50.802;4.350;2023-10-08T00:54:36;16.20;99.90
22491;DHT22;11412;50.802;4.350;2023-10-08T00:57:27;16.10;99.90
22491;DHT22;11412;50.802;4.350;2023-10-08T00:59:55;16.10;99.90
22491;DHT22;11412;50.802;4.350;2023-10-08T01:02:26;16.00;99.90
22491;DHT22;11412;50.802;4.350;2023-10-08T01:04:54;16.00;99.90
22491;DHT22;11412;50.802;4.350;2023-10-08T01:07:21;16.00;99.90
22491;DHT22;11412;50.802;4.350;2023-10-08T01:09:47;16.00;99.90
22491;DHT22;11412;50.802;4.350;2023-10-08T01:12:23;15.90;99.90
22491;DHT22;11412;50.802;4.350;2023-10-08T01:14:55;15.90;99.90
22491;DHT22;11412;50.802;4.350;2023-10-08T01:17:24;15.90;99.90
22491;DHT22;11412;50.802;4.350;2023-10-08T01:19:51;15.80;99.90
22491;DHT22;11412;50.802;4.350;2023-10-08T01:22:21;15.80;99.90
22491;DHT22;11412;50.802;4.350;2023-10-08T01:24:50;15.70;99.90
22491;DHT22;11412;50.802;4.350;2023-10-08T01:27:17;15.70;99.90
22491;DHT22;11412;50.802;4.350;2023-10-08T01:29:48;15.70;99.90
22491;DHT22;11412;50.802;4.350;2023-10-08T01:32:18;15.60;99.90
22491;DHT22;11412;50.802;4.350;2023-10-08T01:34:45;15.60;99.90
22491;DHT22;11412;50.802;4.350;2023-10-08T01:37:16;15.50;99.90
22491;DHT22;11412;50.802;4.350;2023-10-08T01:39:45;15.50;99.90
22491;DHT22;11412;50.802;4.350;2023-10-08T01:42:12;15.50;99.90
22491;DHT22;11412;50.802;4.350;2023-10-08T01:44:44;15.60;99.90
22491;DHT22;11412;50.802;4.350;2023-10-08T01:47:14;15.50;99.90
22491;DHT22;11412;50.802;4.350;2023-10-08T01:49:43;15.50;99.90
22491;DHT22;11412;50.802;4.350;2023-10-08T01:52:14;15.50;99.90
22491;DHT22;11412;50.802;4.350;2023-10-08T01:54:49;15.40;99.90
22491;DHT22;11412;50.802;4.350;2023-10-08T01:57:16;15.40;99.90
22491;DHT22;11412;50.802;4.350;2023-10-08T01:59:42;15.30;99.90
22491;DHT22;11412;50.802;4.350;2023-10-08T02:02:09;15.30;99.90
22491;DHT22;11412;50.802;4.350;2023-10-08T02:04:36;15.20;99.90
22491;DHT22;11412;50.802;4.350;2023-10-08T02:07:04;15.20;99.90
22491;DHT22;11412;50.802;4.350;2023-10-08T02:09:34;15.10;99.90
22491;DHT22;11412;50.802;4.350;2023-10-08T02:11:59;15.10;99.90
22491;DHT22;11412;50.802;4.350;2023-10-08T02:14:25;15.10;99.90
22491;DHT22;11412;50.802;4.350;2023-10-08T02:16:51;15.00;99.90
22491;DHT22;11412;50.802;4.350;2023-10-08T02:19:22;15.00;99.90
22491;DHT22;11412;50.802;4.350;2023-10-08T02:21:53;15.10;99.90
22491;DHT22;11412;50.802;4.350;2023-10-08T02:24:20;15.10;99.90
22491;DHT22;11412;50.802;4.350;2023-10-08T02:26:53;15.00;99.90
22491;DHT22;11412;50.802;4.350;2023-10-08T02:29:21;14.90;99.90
22491;DHT22;11412;50.802;4.350;2023-10-08T02:31:47;14.90;99.90
22491;DHT22;11412;50.802;4.350;2023-10-08T02:34:13;14.90;99.90
22491;DHT22;11412;50.802;4.350;2023-10-08T02:36:39;14.90;99.90
22491;DHT22;11412;50.802;4.350;2023-10-08T02:39:06;14.90;99.90
22491;DHT22;11412;50.802;4.350;2023-10-08T02:41:45;14.90;99.90
22491;DHT22;11412;50.802;4.350;2023-10-08T02:44:12;14.80;99.90
22491;DHT22;11412;50.802;4.350;2023-10-08T02:46:45;14.90;99.90
22491;DHT22;11412;50.802;4.350;2023-10-08T02:49:13;14.80;99.90
22491;DHT22;11412;50.802;4.350;2023-10-08T02:51:43;14.80;99.90
22491;DHT22;11412;50.802;4.350;2023-10-08T02:54:11;14.80;99.90
22491;DHT22;11412;50.802;4.350;2023-10-08T02:56:53;14.80;99.90
22491;DHT22;11412;50.802;4.350;2023-10-08T02:59:23;14.80;99.90
22491;DHT22;11412;50.802;4.350;2023-10-08T03:01:49;14.80;99.90
22491;DHT22;11412;50.802;4.350;2023-10-08T03:04:15;14.80;99.90
22491;DHT22;11412;50.802;4.350;2023-10-08T03:06:50;14.80;99.90
22491;DHT22;11412;50.802;4.350;2023-10-08T03:09:17;14.80;99.90
22491;DHT22;11412;50.802;4.350;2023-10-08T03:11:47;14.80;99.90
22491;DHT22;11412;50.802;4.350;2023-10-08T03:14:17;14.70;99.90
22491;DHT22;11412;50.802;4.350;2023-10-08T03:16:53;14.70;99.90
22491;DHT22;11412;50.802;4.350;2023-10-08T03:19:22;14.70;99.90
22491;DHT22;11412;50.802;4.350;2023-10-08T03:21:49;14.60;99.90
22491;DHT22;11412;50.802;4.350;2023-10-08T03:24:17;14.70;99.90
22491;DHT22;11412;50.802;4.350;2023-10-08T03:27:03;14.60;99.90
22491;DHT22;11412;50.802;4.350;2023-10-08T03:29:51;14.60;99.90
22491;DHT22;11412;50.802;4.350;2023-10-08T03:32:19;14.70;99.90
22491;DHT22;11412;50.802;4.350;2023-10-08T03:34:52;14.60;99.90
22491;DHT22;11412;50.802;4.350;2023-10-08T03:37:22;14.60;99.90
22491;DHT22;11412;50.802;4.350;2023-10-08T03:39:55;14.70;99.90
22491;DHT22;11412;50.802;4.350;2023-10-08T03:42:33;14.60;99.90
22491;DHT22;11412;50.802;4.350;2023-10-08T03:45:06;14.60;99.90
22491;DHT22;11412;50.802;4.350;2023-10-08T03:47:37;14.60;99.90
22491;DHT22;11412;50.802;4.350;2023-10-08T03:50:07;14.50;99.90
22491;DHT22;11412;50.802;4.350;2023-10-08T03:52:35;14.50;99.90
22491;DHT22;11412;50.802;4.350;2023-10-08T03:55:06;14.60;99.90
22491;DHT22;11412;50.802;4.350;2023-10-08T03:57:44;14.50;99.90
22491;DHT22;11412;50.802;4.350;2023-10-08T04:00:14;14.50;99.90
22491;DHT22;11412;50.802;4.350;2023-10-08T04:02:57;14.50;99.90
22491;DHT22;11412;50.802;4.350;2023-10-08T04:05:37;14.40;99.90
22491;DHT22;11412;50.802;4.350;2023-10-08T04:08:17;14.40;99.90
22491;DHT22;11412;50.802;4.350;2023-10-08T04:10:48;14.40;99.90
22491;DHT22;11412;50.802;4.350;2023-10-08T04:13:14;14.30;99.90
22491;DHT22;11412;50.802;4.350;2023-10-08T04:15:41;14.30;99.90
22491;DHT22;11412;50.802;4.350;2023-10-08T04:18:09;14.30;99.90
22491;DHT22;11412;50.802;4.350;2023-10-08T04:20:36;14.30;99.90
22491;DHT22;11412;50.802;4.350;2023-10-08T04:23:09;14.30;99.90
22491;DHT22;11412;50.802;4.350;2023-10-08T04:25:44;14.20;99.90
22491;DHT22;11412;50.802;4.350;2023-10-08T04:28:10;14.20;99.90
22491;DHT22;11412;50.802;4.350;2023-10-08T04:30:46;14.20;99.90
22491;DHT22;11412;50.802;4.350;2023-10-08T04:33:13;14.20;99.90
22491;DHT22;11412;50.802;4.350;2023-10-08T04:35:42;14.20;99.90
22491;DHT22;11412;50.802;4.350;2023-10-08T04:38:23;14.10;99.90
22491;DHT22;11412;50.802;4.350;2023-10-08T04:40:51;14.20;99.90
22491;DHT22;11412;50.802;4.350;2023-10-08T04:43:21;14.10;99.90
22491;DHT22;11412;50.802;4.350;2023-10-08T04:45:54;14.10;99.90
22491;DHT22;11412;50.802;4.350;2023-10-08T04:48:22;14.00;99.90
22491;DHT22;11412;50.802;4.350;2023-10-08T04:50:52;14.00;99.90
22491;DHT22;11412;50.802;4.350;2023-10-08T04:53:26;14.10;99.90
22491;DHT22;11412;50.802;4.350;2023-10-08T04:56:06;14.00;99.90
22491;DHT22;11412;50.802;4.350;2023-10-08T04:58:45;14.00;99.90
22491;DHT22;11412;50.802;4.350;2023-10-08T05:01:15;14.00;99.90
22491;DHT22;11412;50.802;4.350;2023-10-08T05:06:32;13.90;99.90
22491;DHT22;11412;50.802;4.350;2023-10-08T05:09:08;14.00;99.90
22491;DHT22;11412;50.802;4.350;2023-10-08T05:11:52;14.00;99.90
22491;DHT22;11412;50.802;4.350;2023-10-08T05:14:36;14.00;99.90
22491;DHT22;11412;50.802;4.350;2023-10-08T05:17:11;14.00;99.90
22491;DHT22;11412;50.802;4.350;2023-10-08T05:19:48;14.00;99.90
22491;DHT22;11412;50.802;4.350;2023-10-08T05:22:34;14.00;99.90
22491;DHT22;11412;50.802;4.350;2023-10-08T05:25:09;13.90;99.90
22491;DHT22;11412;50.802;4.350;2023-10-08T05:27:45;13.90;99.90
22491;DHT22;11412;50.802;4.350;2023-10-08T05:30:31;13.90;99.90
22491;DHT22;11412;50.802;4.350;2023-10-08T05:33:04;13.90;99.90
22491;DHT22;11412;50.802;4.350;2023-10-08T05:35:43;13.80;99.90
22491;DHT22;11412;50.802;4.350;2023-10-08T05:38:16;13.80;99.90
22491;DHT22;11412;50.802;4.350;2023-10-08T05:40:51;13.80;99.90
22491;DHT22;11412;50.802;4.350;2023-10-08T05:43:37;13.80;99.90
22491;DHT22;11412;50.802;4.350;2023-10-08T05:46:04;13.80;99.90
22491;DHT22;11412;50.802;4.350;2023-10-08T05:49:05;13.80;99.90
22491;DHT22;11412;50.802;4.350;2023-10-08T05:51:38;13.80;99.90
22491;DHT22;11412;50.802;4.350;2023-10-08T05:54:17;13.80;99.90
22491;DHT22;11412;50.802;4.350;2023-10-08T05:56:57;13.70;99.90
22491;DHT22;11412;50.802;4.350;2023-10-08T05:59:43;13.70;99.90
22491;DHT22;11412;50.802;4.350;2023-10-08T06:02:22;13.70;99.90
22491;DHT22;11412;50.802;4.350;2023-10-08T06:05:04;13.70;99.90
22491;DHT22;11412;50.802;4.350;2023-10-08T06:07:41;13.80;99.90
22491;DHT22;11412;50.802;4.350;2023-10-08T06:10:25;13.80;99.90
22491;DHT22;11412;50.802;4.350;2023-10-08T06:12:58;13.70;99.90
22491;DHT22;11412;50.802;4.350;2023-10-08T06:15:50;13.70;99.90
22491;DHT22;11412;50.802;4.350;2023-10-08T06:18:29;13.80;99.90
22491;DHT22;11412;50.802;4.350;2023-10-08T06:21:00;13.70;99.90
22491;DHT22;11412;50.802;4.350;2023-10-08T06:23:30;13.80;99.90
22491;DHT22;11412;50.802;4.350;2023-10-08T06:25:58;13.80;99.90
22491;DHT22;11412;50.802;4.350;2023-10-08T06:28:26;13.80;99.90
22491;DHT22;11412;50.802;4.350;2023-10-08T06:30:55;13.90;99.90
22491;DHT22;11412;50.802;4.350;2023-10-08T06:33:23;13.90;99.90
22491;DHT22;11412;50.802;4.350;2023-10-08T06:36:02;14.00;99.90
22491;DHT22;11412;50.802;4.350;2023-10-08T06:38:38;14.00;99.90
22491;DHT22;11412;50.802;4.350;2023-10-08T06:41:09;14.10;99.90
22491;DHT22;11412;50.802;4.350;2023-10-08T06:43:36;14.20;99.90
22491;DHT22;11412;50.802;4.350;2023-10-08T06:46:03;14.30;99.90
22491;DHT22;11412;50.802;4.350;2023-10-08T06:48:32;14.30;99.90
22491;DHT22;11412;50.802;4.350;2023-10-08T06:51:00;14.40;99.90
22491;DHT22;11412;50.802;4.350;2023-10-08T06:53:33;14.40;99.90
22491;DHT22;11412;50.802;4.350;2023-10-08T06:55:59;14.50;99.90
22491;DHT22;11412;50.802;4.350;2023-10-08T06:58:30;14.50;99.90
22491;DHT22;11412;50.802;4.350;2023-10-08T07:00:58;14.60;99.90
22491;DHT22;11412;50.802;4.350;2023-10-08T07:03:30;14.70;99.90
22491;DHT22;11412;50.802;4.350;2023-10-08T07:05:57;14.70;99.90
22491;DHT22;11412;50.802;4.350;2023-10-08T07:08:43;14.70;99.90
22491;DHT22;11412;50.802;4.350;2023-10-08T07:11:12;14.80;99.90
22491;DHT22;11412;50.802;4.350;2023-10-08T07:13:39;14.90;99.90
22491;DHT22;11412;50.802;4.350;2023-10-08T07:16:07;14.90;99.90
22491;DHT22;11412;50.802;4.350;2023-10-08T07:18:37;14.90;99.90
22491;DHT22;11412;50.802;4.350;2023-10-08T07:21:03;15.00;99.90
22491;DHT22;11412;50.802;4.350;2023-10-08T07:23:39;15.00;99.90
22491;DHT22;11412;50.802;4.350;2023-10-08T07:26:27;15.10;99.90
22491;DHT22;11412;50.802;4.350;2023-10-08T07:29:02;15.10;99.90
22491;DHT22;11412;50.802;4.350;2023-10-08T07:31:33;15.20;99.90
22491;DHT22;11412;50.802;4.350;2023-10-08T07:34:01;15.10;99.90
22491;DHT22;11412;50.802;4.350;2023-10-08T07:36:48;15.30;99.90
22491;DHT22;11412;50.802;4.350;2023-10-08T07:39:18;15.50;99.90
22491;DHT22;11412;50.802;4.350;2023-10-08T07:42:07;15.50;99.90
22491;DHT22;11412;50.802;4.350;2023-10-08T07:44:34;15.60;99.90
22491;DHT22;11412;50.802;4.350;2023-10-08T07:47:05;15.60;99.90
22491;DHT22;11412;50.802;4.350;2023-10-08T07:49:39;15.80;99.90
22491;DHT22;11412;50.802;4.350;2023-10-08T07:52:05;15.80;99.90
22491;DHT22;11412;50.802;4.350;2023-10-08T07:54:31;15.90;99.90
22491;DHT22;11412;50.802;4.350;2023-10-08T07:57:01;16.10;99.90
22491;DHT22;11412;50.802;4.350;2023-10-08T07:59:38;16.00;99.90
22491;DHT22;11412;50.802;4.350;2023-10-08T08:02:07;16.00;99.90
22491;DHT22;11412;50.802;4.350;2023-10-08T08:04:42;16.00;99.90
22491;DHT22;11412;50.802;4.350;2023-10-08T08:07:09;16.10;99.90
22491;DHT22;11412;50.802;4.350;2023-10-08T08:09:42;16.20;99.90
22491;DHT22;11412;50.802;4.350;2023-10-08T08:12:22;16.30;99.90
22491;DHT22;11412;50.802;4.350;2023-10-08T08:14:48;16.30;99.90
22491;DHT22;11412;50.802;4.350;2023-10-08T08:17:14;16.50;99.90
22491;DHT22;11412;50.802;4.350;2023-10-08T08:19:44;16.60;99.90
22491;DHT22;11412;50.802;4.350;2023-10-08T08:22:11;16.70;99.90
22491;DHT22;11412;50.802;4.350;2023-10-08T08:24:54;16.70;99.90
22491;DHT22;11412;50.802;4.350;2023-10-08T08:27:43;16.70;99.90
22491;DHT22;11412;50.802;4.350;2023-10-08T08:30:12;16.70;99.90
22491;DHT22;11412;50.802;4.350;2023-10-08T08:32:42;16.80;99.90
22491;DHT22;11412;50.802;4.350;2023-10-08T08:35:13;16.80;99.90
22491;DHT22;11412;50.802;4.350;2023-10-08T08:37:42;16.90;99.90
22491;DHT22;11412;50.802;4.350;2023-10-08T08:40:08;17.00;99.90
22491;DHT22;11412;50.802;4.350;2023-10-08T08:42:35;17.10;99.90
22491;DHT22;11412;50.802;4.350;2023-10-08T08:45:05;17.10;99.90
22491;DHT22;11412;50.802;4.350;2023-10-08T08:47:35;17.20;99.90
22491;DHT22;11412;50.802;4.350;2023-10-08T08:50:04;17.30;99.90
22491;DHT22;11412;50.802;4.350;2023-10-08T08:52:35;17.40;99.90
22491;DHT22;11412;50.802;4.350;2023-10-08T08:55:04;17.30;99.90
22491;DHT22;11412;50.802;4.350;2023-10-08T08:57:34;17.40;99.90
22491;DHT22;11412;50.802;4.350;2023-10-08T09:00:00;17.50;99.90
22491;DHT22;11412;50.802;4.350;2023-10-08T09:02:26;17.60;99.90
22491;DHT22;11412;50.802;4.350;2023-10-08T09:04:51;17.60;99.90
22491;DHT22;11412;50.802;4.350;2023-10-08T09:07:24;17.70;99.90
22491;DHT22;11412;50.802;4.350;2023-10-08T09:09:49;17.90;99.90
22491;DHT22;11412;50.802;4.350;2023-10-08T09:12:17;18.00;99.90
22491;DHT22;11412;50.802;4.350;2023-10-08T09:14:43;18.10;99.90
22491;DHT22;11412;50.802;4.350;2023-10-08T09:17:10;18.10;99.90
22491;DHT22;11412;50.802;4.350;2023-10-08T09:19:39;18.00;99.90
22491;DHT22;11412;50.802;4.350;2023-10-08T09:22:10;18.20;99.90
22491;DHT22;11412;50.802;4.350;2023-10-08T09:24:39;18.20;99.90
22491;DHT22;11412;50.802;4.350;2023-10-08T09:27:08;18.40;99.90
22491;DHT22;11412;50.802;4.350;2023-10-08T09:29:35;18.60;99.90
22491;DHT22;11412;50.802;4.350;2023-10-08T09:32:11;18.60;99.90
22491;DHT22;11412;50.802;4.350;2023-10-08T09:34:37;18.60;99.90
22491;DHT22;11412;50.802;4.350;2023-10-08T09:37:03;18.80;99.90
22491;DHT22;11412;50.802;4.350;2023-10-08T09:39:29;18.80;99.90
22491;DHT22;11412;50.802;4.350;2023-10-08T09:42:03;19.00;99.90
22491;DHT22;11412;50.802;4.350;2023-10-08T09:44:30;19.00;99.90
22491;DHT22;11412;50.802;4.350;2023-10-08T09:47:08;18.80;99.90
22491;DHT22;11412;50.802;4.350;2023-10-08T09:49:46;18.70;99.90
22491;DHT22;11412;50.802;4.350;2023-10-08T09:52:18;18.60;99.90
22491;DHT22;11412;50.802;4.350;2023-10-08T09:57:12;18.60;99.90
22491;DHT22;11412;50.802;4.350;2023-10-08T09:59:39;18.60;99.90
22491;DHT22;11412;50.802;4.350;2023-10-08T10:02:07;18.60;99.90
22491;DHT22;11412;50.802;4.350;2023-10-08T10:04:42;18.70;99.90
22491;DHT22;11412;50.802;4.350;2023-10-08T10:07:12;18.70;99.90
22491;DHT22;11412;50.802;4.350;2023-10-08T10:09:43;18.70;99.90
22491;DHT22;11412;50.802;4.350;2023-10-08T10:12:12;18.70;99.90
22491;DHT22;11412;50.802;4.350;2023-10-08T10:14:47;18.80;99.90
22491;DHT22;11412;50.802;4.350;2023-10-08T10:17:26;18.90;99.90
22491;DHT22;11412;50.802;4.350;2023-10-08T10:19:56;19.00;99.90
22491;DHT22;11412;50.802;4.350;2023-10-08T10:22:34;19.10;99.90
22491;DHT22;11412;50.802;4.350;2023-10-08T10:25:03;19.10;99.90
22491;DHT22;11412;50.802;4.350;2023-10-08T10:27:42;19.20;99.90
22491;DHT22;11412;50.802;4.350;2023-10-08T10:30:08;19.20;99.90
22491;DHT22;11412;50.802;4.350;2023-10-08T10:32:35;19.20;99.90
22491;DHT22;11412;50.802;4.350;2023-10-08T10:35:01;19.30;99.90
22491;DHT22;11412;50.802;4.350;2023-10-08T10:37:37;19.50;99.90
22491;DHT22;11412;50.802;4.350;2023-10-08T10:40:07;19.80;99.90
22491;DHT22;11412;50.802;4.350;2023-10-08T10:42:38;20.00;99.90
22491;DHT22;11412;50.802;4.350;2023-10-08T10:45:15;20.10;99.90
22491;DHT22;11412;50.802;4.350;2023-10-08T10:48:00;20.20;99.90
22491;DHT22;11412;50.802;4.350;2023-10-08T10:50:40;20.20;99.90
22491;DHT22;11412;50.802;4.350;2023-10-08T10:53:25;20.20;99.90
22491;DHT22;11412;50.802;4.350;2023-10-08T10:55:53;20.40;99.90
22491;DHT22;11412;50.802;4.350;2023-10-08T10:58:35;20.70;99.90
22491;DHT22;11412;50.802;4.350;2023-10-08T11:01:07;20.70;99.90
22491;DHT22;11412;50.802;4.350;2023-10-08T11:03:33;20.90;99.90
22491;DHT22;11412;50.802;4.350;2023-10-08T11:06:01;20.70;99.90
22491;DHT22;11412;50.802;4.350;2023-10-08T11:08:32;20.80;99.90
22491;DHT22;11412;50.802;4.350;2023-10-08T11:11:01;21.00;99.90
22491;DHT22;11412;50.802;4.350;2023-10-08T11:13:33;21.20;99.90
22491;DHT22;11412;50.802;4.350;2023-10-08T11:16:07;21.40;99.90
22491;DHT22;11412;50.802;4.350;2023-10-08T11:18:34;21.50;99.90
22491;DHT22;11412;50.802;4.350;2023-10-08T11:21:08;21.70;99.90
22491;DHT22;11412;50.802;4.350;2023-10-08T11:23:49;21.90;99.90
22491;DHT22;11412;50.802;4.350;2023-10-08T11:26:19;22.00;99.90
22491;DHT22;11412;50.802;4.350;2023-10-08T11:28:45;21.90;99.90
22491;DHT22;11412;50.802;4.350;2023-10-08T11:31:17;22.00;99.90
22491;DHT22;11412;50.802;4.350;2023-10-08T11:33:45;22.20;99.90
22491;DHT22;11412;50.802;4.350;2023-10-08T11:36:20;22.50;99.90
22491;DHT22;11412;50.802;4.350;2023-10-08T11:38:50;22.50;99.90
22491;DHT22;11412;50.802;4.350;2023-10-08T11:41:19;22.70;99.90
22491;DHT22;11412;50.802;4.350;2023-10-08T11:43:51;22.80;99.90
22491;DHT22;11412;50.802;4.350;2023-10-08T11:46:30;23.00;99.90
22491;DHT22;11412;50.802;4.350;2023-10-08T11:49:04;23.00;99.90
22491;DHT22;11412;50.802;4.350;2023-10-08T11:51:34;23.20;99.90
22491;DHT22;11412;50.802;4.350;2023-10-08T11:54:03;23.30;99.90
22491;DHT22;11412;50.802;4.350;2023-10-08T11:56:32;23.40;99.90
22491;DHT22;11412;50.802;4.350;2023-10-08T11:59:01;23.50;99.90
22491;DHT22;11412;50.802;4.350;2023-10-08T12:01:31;23.70;99.90
22491;DHT22;11412;50.802;4.350;2023-10-08T12:04:01;24.00;99.90
22491;DHT22;11412;50.802;4.350;2023-10-08T12:06:27;24.00;99.90
22491;DHT22;11412;50.802;4.350;2023-10-08T12:08:56;24.20;99.90
22491;DHT22;11412;50.802;4.350;2023-10-08T12:11:27;24.50;99.90
22491;DHT22;11412;50.802;4.350;2023-10-08T12:13:59;24.80;99.90
22491;DHT22;11412;50.802;4.350;2023-10-08T12:16:26;24.80;99.90
22491;DHT22;11412;50.802;4.350;2023-10-08T12:18:56;24.30;99.90
22491;DHT22;11412;50.802;4.350;2023-10-08T12:21:28;24.30;99.90
22491;DHT22;11412;50.802;4.350;2023-10-08T12:23:58;24.60;99.90
22491;DHT22;11412;50.802;4.350;2023-10-08T12:26:24;24.60;99.90
22491;DHT22;11412;50.802;4.350;2023-10-08T12:28:50;24.70;99.90
22491;DHT22;11412;50.802;4.350;2023-10-08T12:31:17;24.90;99.90
22491;DHT22;11412;50.802;4.350;2023-10-08T12:33:54;24.90;99.90
22491;DHT22;11412;50.802;4.350;2023-10-08T12:36:26;24.90;99.90
22491;DHT22;11412;50.802;4.350;2023-10-08T12:38:52;25.20;99.90
22491;DHT22;11412;50.802;4.350;2023-10-08T12:41:34;25.10;99.90
22491;DHT22;11412;50.802;4.350;2023-10-08T12:44:04;24.90;99.90
22491;DHT22;11412;50.802;4.350;2023-10-08T12:46:33;25.00;99.90
22491;DHT22;11412;50.802;4.350;2023-10-08T12:48:59;25.00;99.90
22491;DHT22;11412;50.802;4.350;2023-10-08T12:51:27;24.90;99.90
22491;DHT22;11412;50.802;4.350;2023-10-08T12:53:58;25.00;99.90
22491;DHT22;11412;50.802;4.350;2023-10-08T12:56:36;25.40;99.90
22491;DHT22;11412;50.802;4.350;2023-10-08T12:59:10;25.70;99.90
22491;DHT22;11412;50.802;4.350;2023-10-08T13:01:46;25.70;99.90
22491;DHT22;11412;50.802;4.350;2023-10-08T13:04:17;25.60;99.90
22491;DHT22;11412;50.802;4.350;2023-10-08T13:06:50;25.50;99.90
22491;DHT22;11412;50.802;4.350;2023-10-08T13:09:17;25.40;99.90
22491;DHT22;11412;50.802;4.350;2023-10-08T13:11:43;25.50;99.90
22491;DHT22;11412;50.802;4.350;2023-10-08T13:14:09;25.60;99.90
22491;DHT22;11412;50.802;4.350;2023-10-08T13:16:36;25.60;99.90
22491;DHT22;11412;50.802;4.350;2023-10-08T13:19:03;25.60;99.90
22491;DHT22;11412;50.802;4.350;2023-10-08T13:21:29;25.70;99.90
22491;DHT22;11412;50.802;4.350;2023-10-08T13:23:57;25.50;99.90
22491;DHT22;11412;50.802;4.350;2023-10-08T13:26:26;25.50;99.90
22491;DHT22;11412;50.802;4.350;2023-10-08T13:28:59;25.40;99.90
22491;DHT22;11412;50.802;4.350;2023-10-08T13:31:27;25.30;99.90
22491;DHT22;11412;50.802;4.350;2023-10-08T13:33:54;25.30;99.90
22491;DHT22;11412;50.802;4.350;2023-10-08T13:36:23;25.30;99.90
22491;DHT22;11412;50.802;4.350;2023-10-08T13:38:49;25.30;99.90
22491;DHT22;11412;50.802;4.350;2023-10-08T13:41:15;25.20;99.90
22491;DHT22;11412;50.802;4.350;2023-10-08T13:43:42;25.30;99.90
22491;DHT22;11412;50.802;4.350;2023-10-08T13:46:11;25.40;99.90
22491;DHT22;11412;50.802;4.350;2023-10-08T13:48:41;25.40;99.90
22491;DHT22;11412;50.802;4.350;2023-10-08T13:51:08;25.20;99.90
22491;DHT22;11412;50.802;4.350;2023-10-08T13:53:41;25.30;99.90
22491;DHT22;11412;50.802;4.350;2023-10-08T13:56:11;25.10;99.90
22491;DHT22;11412;50.802;4.350;2023-10-08T13:58:37;25.20;99.90
22491;DHT22;11412;50.802;4.350;2023-10-08T14:01:13;25.50;99.90
22491;DHT22;11412;50.802;4.350;2023-10-08T14:03:45;25.40;99.90
22491;DHT22;11412;50.802;4.350;2023-10-08T14:06:12;25.30;99.90
22491;DHT22;11412;50.802;4.350;2023-10-08T14:08:39;25.50;99.90
22491;DHT22;11412;50.802;4.350;2023-10-08T14:11:05;25.20;99.90
22491;DHT22;11412;50.802;4.350;2023-10-08T14:13:31;25.10;99.90
22491;DHT22;11412;50.802;4.350;2023-10-08T14:16:04;25.20;99.90
22491;DHT22;11412;50.802;4.350;2023-10-08T14:18:37;25.20;99.90
22491;DHT22;11412;50.802;4.350;2023-10-08T14:21:09;25.30;99.90
22491;DHT22;11412;50.802;4.350;2023-10-08T14:23:39;25.30;99.90
22491;DHT22;11412;50.802;4.350;2023-10-08T14:26:08;25.30;99.90
22491;DHT22;11412;50.802;4.350;2023-10-08T14:28:34;25.20;99.90
22491;DHT22;11412;50.802;4.350;2023-10-08T14:31:08;25.20;99.90
22491;DHT22;11412;50.802;4.350;2023-10-08T14:33:34;25.10;99.90
22491;DHT22;11412;50.802;4.350;2023-10-08T14:36:09;24.90;99.90
22491;DHT22;11412;50.802;4.350;2023-10-08T14:38:53;25.00;99.90
22491;DHT22;11412;50.802;4.350;2023-10-08T14:41:37;25.10;99.90
22491;DHT22;11412;50.802;4.350;2023-10-08T14:44:22;25.00;99.90
22491;DHT22;11412;50.802;4.350;2023-10-08T14:46:51;24.60;99.90
22491;DHT22;11412;50.802;4.350;2023-10-08T14:49:17;24.50;99.90
22491;DHT22;11412;50.802;4.350;2023-10-08T14:51:43;24.40;99.90
22491;DHT22;11412;50.802;4.350;2023-10-08T14:54:09;24.20;99.90
22491;DHT22;11412;50.802;4.350;2023-10-08T14:56:35;24.00;99.90
22491;DHT22;11412;50.802;4.350;2023-10-08T14:59:03;23.90;99.90
22491;DHT22;11412;50.802;4.350;2023-10-08T15:01:29;23.90;99.90
22491;DHT22;11412;50.802;4.350;2023-10-08T15:03:59;23.70;99.90
22491;DHT22;11412;50.802;4.350;2023-10-08T15:06:29;23.60;99.90
22491;DHT22;11412;50.802;4.350;2023-10-08T15:08:55;23.50;99.90
22491;DHT22;11412;50.802;4.350;2023-10-08T15:11:23;23.30;99.90
22491;DHT22;11412;50.802;4.350;2023-10-08T15:13:49;23.40;99.90
22491;DHT22;11412;50.802;4.350;2023-10-08T15:16:19;23.40;99.90
22491;DHT22;11412;50.802;4.350;2023-10-08T15:18:49;23.30;99.90
22491;DHT22;11412;50.802;4.350;2023-10-08T15:21:17;23.30;99.90
22491;DHT22;11412;50.802;4.350;2023-10-08T15:23:46;23.30;99.90
22491;DHT22;11412;50.802;4.350;2023-10-08T15:26:12;23.20;99.90
22491;DHT22;11412;50.802;4.350;2023-10-08T15:28:39;23.10;99.90
22491;DHT22;11412;50.802;4.350;2023-10-08T15:31:05;22.90;99.90
22491;DHT22;11412;50.802;4.350;2023-10-08T15:33:32;22.90;99.90
22491;DHT22;11412;50.802;4.350;2023-10-08T15:35:58;22.90;99.90
22491;DHT22;11412;50.802;4.350;2023-10-08T15:38:25;22.80;99.90
22491;DHT22;11412;50.802;4.350;2023-10-08T15:40:51;22.60;99.90
22491;DHT22;11412;50.802;4.350;2023-10-08T15:43:17;22.60;99.90
22491;DHT22;11412;50.802;4.350;2023-10-08T15:45:43;22.50;99.90
22491;DHT22;11412;50.802;4.350;2023-10-08T15:48:10;22.60;99.90
22491;DHT22;11412;50.802;4.350;2023-10-08T15:50:37;22.50;99.90
22491;DHT22;11412;50.802;4.350;2023-10-08T15:53:02;22.40;99.90
22491;DHT22;11412;50.802;4.350;2023-10-08T15:55:29;22.40;99.90
22491;DHT22;11412;50.802;4.350;2023-10-08T15:57:56;22.30;99.90
22491;DHT22;11412;50.802;4.350;2023-10-08T16:00:22;22.40;99.90
22491;DHT22;11412;50.802;4.350;2023-10-08T16:02:48;22.30;99.90